sensor_id;sensor_type;location;lat;lon;timestamp;temperature;humidity
10459;DHT22;5277;48.722;8.736;2023-05-27T00:00:16;12.60;99.90
10459;DHT22;5277;48.722;8.736;2023-05-27T00:02:42;12.60;99.90
10459;DHT22;5277;48.722;8.736;2023-05-27T00:05:08;12.60;99.90
10459;DHT22;5277;48.722;8.736;2023-05-27T00:07:33;12.50;99.90
10459;DHT22;5277;48.722;8.736;2023-05-27T00:09:59;12.40;99.90
10459;DHT22;5277;48.722;8.736;2023-05-27T00:12:24;12.40;99.90
10459;DHT22;5277;48.722;8.736;2023-05-27T00:14:50;12.40;99.90
10459;DHT22;5277;48.722;8.736;2023-05-27T00:17:16;12.40;99.90
10459;DHT22;5277;48.722;8.736;2023-05-27T00:19:42;12.40;99.90
10459;DHT22;5277;48.722;8.736;2023-05-27T00:22:08;12.30;99.90
10459;DHT22;5277;48.722;8.736;2023-05-27T00:24:34;12.30;99.90
10459;DHT22;5277;48.722;8.736;2023-05-27T00:27:01;12.20;99.90
10459;DHT22;5277;48.722;8.736;2023-05-27T00:29:28;12.20;99.90
10459;DHT22;5277;48.722;8.736;2023-05-27T00:31:53;12.10;99.90
10459;DHT22;5277;48.722;8.736;2023-05-27T00:34:19;12.10;99.90
10459;DHT22;5277;48.722;8.736;2023-05-27T00:36:45;12.10;99.90
10459;DHT22;5277;48.722;8.736;2023-05-27T00:39:10;12.10;99.90
10459;DHT22;5277;48.722;8.736;2023-05-27T00:41:36;12.20;99.90
10459;DHT22;5277;48.722;8.736;2023-05-27T00:44:02;12.20;99.90
10459;DHT22;5277;48.722;8.736;2023-05-27T00:46:28;12.20;99.90
10459;DHT22;5277;48.722;8.736;2023-05-27T00:48:54;12.20;99.90
10459;DHT22;5277;48.722;8.736;2023-05-27T00:51:20;12.20;99.90
10459;DHT22;5277;48.722;8.736;2023-05-27T00:53:46;12.20;99.90
10459;DHT22;5277;48.722;8.736;2023-05-27T00:56:12;12.20;99.90
10459;DHT22;5277;48.722;8.736;2023-05-27T00:58:41;12.30;99.90
10459;DHT22;5277;48.722;8.736;2023-05-27T01:01:07;12.30;99.90
10459;DHT22;5277;48.722;8.736;2023-05-27T01:03:34;12.20;99.90
10459;DHT22;5277;48.722;8.736;2023-05-27T01:06:14;12.20;99.90
10459;DHT22;5277;48.722;8.736;2023-05-27T01:12:10;12.20;99.90
10459;DHT22;5277;48.722;8.736;2023-05-27T01:14:38;12.20;99.90
10459;DHT22;5277;48.722;8.736;2023-05-27T01:17:06;12.10;99.90
10459;DHT22;5277;48.722;8.736;2023-05-27T01:19:39;12.10;99.90
10459;DHT22;5277;48.722;8.736;2023-05-27T01:22:12;12.10;99.90
10459;DHT22;5277;48.722;8.736;2023-05-27T01:24:37;12.10;99.90
10459;DHT22;5277;48.722;8.736;2023-05-27T01:27:03;12.00;99.90
10459;DHT22;5277;48.722;8.736;2023-05-27T01:29:32;12.00;99.90
10459;DHT22;5277;48.722;8.736;2023-05-27T01:34:49;11.80;99.90
10459;DHT22;5277;48.722;8.736;2023-05-27T01:37:18;11.80;99.90
10459;DHT22;5277;48.722;8.736;2023-05-27T01:39:45;11.80;99.90
10459;DHT22;5277;48.722;8.736;2023-05-27T01:42:12;11.80;99.90
10459;DHT22;5277;48.722;8.736;2023-05-27T01:44:38;11.80;99.90
10459;DHT22;5277;48.722;8.736;2023-05-27T01:47:04;11.80;99.90
10459;DHT22;5277;48.722;8.736;2023-05-27T01:49:30;11.70;99.90
10459;DHT22;5277;48.722;8.736;2023-05-27T01:51:56;11.70;99.90
10459;DHT22;5277;48.722;8.736;2023-05-27T01:54:21;11.70;99.90
10459;DHT22;5277;48.722;8.736;2023-05-27T01:56:47;11.70;99.90
10459;DHT22;5277;48.722;8.736;2023-05-27T01:59:14;11.70;99.90
10459;DHT22;5277;48.722;8.736;2023-05-27T02:01:39;11.50;99.90
10459;DHT22;5277;48.722;8.736;2023-05-27T02:04:06;11.50;99.90
10459;DHT22;5277;48.722;8.736;2023-05-27T02:06:32;11.50;99.90
10459;DHT22;5277;48.722;8.736;2023-05-27T02:08:57;11.50;99.90
10459;DHT22;5277;48.722;8.736;2023-05-27T02:11:23;11.50;99.90
10459;DHT22;5277;48.722;8.736;2023-05-27T02:13:49;11.50;99.90
10459;DHT22;5277;48.722;8.736;2023-05-27T02:16:15;11.50;99.90
10459;DHT22;5277;48.722;8.736;2023-05-27T02:18:40;11.50;99.90
10459;DHT22;5277;48.722;8.736;2023-05-27T02:21:06;11.50;99.90
10459;DHT22;5277;48.722;8.736;2023-05-27T02:23:35;11.40;99.90
10459;DHT22;5277;48.722;8.736;2023-05-27T02:26:02;11.40;99.90
10459;DHT22;5277;48.722;8.736;2023-05-27T02:28:27;11.40;99.90
10459;DHT22;5277;48.722;8.736;2023-05-27T02:30:53;11.30;99.90
10459;DHT22;5277;48.722;8.736;2023-05-27T02:33:18;11.20;99.90
10459;DHT22;5277;48.722;8.736;2023-05-27T02:35:45;11.20;99.90
10459;DHT22;5277;48.722;8.736;2023-05-27T02:38:11;11.30;99.90
10459;DHT22;5277;48.722;8.736;2023-05-27T02:40:36;11.30;99.90
10459;DHT22;5277;48.722;8.736;2023-05-27T02:43:02;11.20;99.90
10459;DHT22;5277;48.722;8.736;2023-05-27T02:45:28;11.20;99.90
10459;DHT22;5277;48.722;8.736;2023-05-27T02:47:53;11.20;99.90
10459;DHT22;5277;48.722;8.736;2023-05-27T02:50:20;11.10;99.90
10459;DHT22;5277;48.722;8.736;2023-05-27T02:52:46;11.10;99.90
10459;DHT22;5277;48.722;8.736;2023-05-27T02:55:11;11.00;99.90
10459;DHT22;5277;48.722;8.736;2023-05-27T02:57:37;10.90;99.90
10459;DHT22;5277;48.722;8.736;2023-05-27T03:00:03;11.00;99.90
10459;DHT22;5277;48.722;8.736;2023-05-27T03:02:29;10.90;99.90
10459;DHT22;5277;48.722;8.736;2023-05-27T03:04:55;10.80;99.90
10459;DHT22;5277;48.722;8.736;2023-05-27T03:07:21;10.80;99.90
10459;DHT22;5277;48.722;8.736;2023-05-27T03:09:46;10.80;99.90
10459;DHT22;5277;48.722;8.736;2023-05-27T03:12:12;10.60;99.90
10459;DHT22;5277;48.722;8.736;2023-05-27T03:14:37;10.60;99.90
10459;DHT22;5277;48.722;8.736;2023-05-27T03:17:03;10.60;99.90
10459;DHT22;5277;48.722;8.736;2023-05-27T03:19:29;10.60;99.90
10459;DHT22;5277;48.722;8.736;2023-05-27T03:21:54;10.50;99.90
10459;DHT22;5277;48.722;8.736;2023-05-27T03:24:20;10.50;99.90
10459;DHT22;5277;48.722;8.736;2023-05-27T03:26:46;10.50;99.90
10459;DHT22;5277;48.722;8.736;2023-05-27T03:29:11;10.50;99.90
10459;DHT22;5277;48.722;8.736;2023-05-27T03:31:37;10.50;99.90
10459;DHT22;5277;48.722;8.736;2023-05-27T03:34:02;10.50;99.90
10459;DHT22;5277;48.722;8.736;2023-05-27T03:36:28;10.60;99.90
10459;DHT22;5277;48.722;8.736;2023-05-27T03:38:55;10.50;99.90
10459;DHT22;5277;48.722;8.736;2023-05-27T03:41:20;10.50;99.90
10459;DHT22;5277;48.722;8.736;2023-05-27T03:43:46;10.50;99.90
10459;DHT22;5277;48.722;8.736;2023-05-27T03:46:12;10.50;99.90
10459;DHT22;5277;48.722;8.736;2023-05-27T03:48:37;10.40;99.90
10459;DHT22;5277;48.722;8.736;2023-05-27T03:51:03;10.40;99.90
10459;DHT22;5277;48.722;8.736;2023-05-27T03:53:29;10.40;99.90
10459;DHT22;5277;48.722;8.736;2023-05-27T03:55:54;10.40;99.90
10459;DHT22;5277;48.722;8.736;2023-05-27T03:58:20;10.40;99.90
10459;DHT22;5277;48.722;8.736;2023-05-27T04:00:46;10.40;99.90
10459;DHT22;5277;48.722;8.736;2023-05-27T04:03:13;10.40;99.90
10459;DHT22;5277;48.722;8.736;2023-05-27T04:05:39;10.40;99.90
10459;DHT22;5277;48.722;8.736;2023-05-27T04:08:05;10.40;99.90
10459;DHT22;5277;48.722;8.736;2023-05-27T04:10:30;10.40;99.90
10459;DHT22;5277;48.722;8.736;2023-05-27T04:12:56;10.40;99.90
10459;DHT22;5277;48.722;8.736;2023-05-27T04:15:22;10.50;99.90
10459;DHT22;5277;48.722;8.736;2023-05-27T04:17:47;10.50;99.90
10459;DHT22;5277;48.722;8.736;2023-05-27T04:20:13;10.50;99.90
10459;DHT22;5277;48.722;8.736;2023-05-27T04:22:42;10.60;99.90
10459;DHT22;5277;48.722;8.736;2023-05-27T04:25:09;10.30;99.90
10459;DHT22;5277;48.722;8.736;2023-05-27T04:27:34;10.30;99.90
10459;DHT22;5277;48.722;8.736;2023-05-27T04:30:00;10.40;99.90
10459;DHT22;5277;48.722;8.736;2023-05-27T04:32:26;10.30;99.90
10459;DHT22;5277;48.722;8.736;2023-05-27T04:34:53;10.30;99.90
10459;DHT22;5277;48.722;8.736;2023-05-27T04:37:18;10.40;99.90
10459;DHT22;5277;48.722;8.736;2023-05-27T04:39:46;10.50;99.90
10459;DHT22;5277;48.722;8.736;2023-05-27T04:42:12;10.50;99.90
10459;DHT22;5277;48.722;8.736;2023-05-27T04:44:38;10.60;99.90
10459;DHT22;5277;48.722;8.736;2023-05-27T04:47:05;10.60;99.90
10459;DHT22;5277;48.722;8.736;2023-05-27T04:49:31;10.60;99.90
10459;DHT22;5277;48.722;8.736;2023-05-27T04:51:57;10.60;99.90
10459;DHT22;5277;48.722;8.736;2023-05-27T04:54:23;10.60;99.90
10459;DHT22;5277;48.722;8.736;2023-05-27T04:56:49;10.60;99.90
10459;DHT22;5277;48.722;8.736;2023-05-27T04:59:18;10.70;99.90
10459;DHT22;5277;48.722;8.736;2023-05-27T05:01:46;10.70;99.90
10459;DHT22;5277;48.722;8.736;2023-05-27T05:04:36;10.70;99.90
10459;DHT22;5277;48.722;8.736;2023-05-27T05:07:02;10.70;99.90
10459;DHT22;5277;48.722;8.736;2023-05-27T05:09:29;10.50;99.90
10459;DHT22;5277;48.722;8.736;2023-05-27T05:11:54;10.60;99.90
10459;DHT22;5277;48.722;8.736;2023-05-27T05:14:20;10.70;99.90
10459;DHT22;5277;48.722;8.736;2023-05-27T05:16:46;10.70;99.90
10459;DHT22;5277;48.722;8.736;2023-05-27T05:19:12;10.80;99.90
10459;DHT22;5277;48.722;8.736;2023-05-27T05:21:38;10.90;99.90
10459;DHT22;5277;48.722;8.736;2023-05-27T05:24:03;11.00;99.90
10459;DHT22;5277;48.722;8.736;2023-05-27T05:26:29;11.10;99.90
10459;DHT22;5277;48.722;8.736;2023-05-27T05:28:55;11.10;99.90
10459;DHT22;5277;48.722;8.736;2023-05-27T05:31:21;11.10;99.90
10459;DHT22;5277;48.722;8.736;2023-05-27T05:33:46;11.10;99.90
10459;DHT22;5277;48.722;8.736;2023-05-27T05:36:12;11.30;99.90
10459;DHT22;5277;48.722;8.736;2023-05-27T05:38:37;11.50;99.90
10459;DHT22;5277;48.722;8.736;2023-05-27T05:41:03;11.70;99.90
10459;DHT22;5277;48.722;8.736;2023-05-27T05:43:29;11.90;99.90
10459;DHT22;5277;48.722;8.736;2023-05-27T05:45:55;12.00;99.90
10459;DHT22;5277;48.722;8.736;2023-05-27T05:48:20;12.10;99.90
10459;DHT22;5277;48.722;8.736;2023-05-27T05:50:46;12.30;99.90
10459;DHT22;5277;48.722;8.736;2023-05-27T05:53:11;12.60;99.90
10459;DHT22;5277;48.722;8.736;2023-05-27T05:55:37;12.90;99.90
10459;DHT22;5277;48.722;8.736;2023-05-27T05:58:03;13.10;99.90
10459;DHT22;5277;48.722;8.736;2023-05-27T06:00:29;13.40;99.90
10459;DHT22;5277;48.722;8.736;2023-05-27T06:02:55;13.60;99.90
10459;DHT22;5277;48.722;8.736;2023-05-27T06:05:20;13.90;99.90
10459;DHT22;5277;48.722;8.736;2023-05-27T06:07:47;14.10;99.90
10459;DHT22;5277;48.722;8.736;2023-05-27T06:10:13;14.20;99.90
10459;DHT22;5277;48.722;8.736;2023-05-27T06:12:39;14.40;99.90
10459;DHT22;5277;48.722;8.736;2023-05-27T06:15:05;14.60;99.90
10459;DHT22;5277;48.722;8.736;2023-05-27T06:17:31;14.70;99.90
10459;DHT22;5277;48.722;8.736;2023-05-27T06:19:56;15.00;99.90
10459;DHT22;5277;48.722;8.736;2023-05-27T06:22:22;15.10;99.90
10459;DHT22;5277;48.722;8.736;2023-05-27T06:24:47;15.30;99.90
10459;DHT22;5277;48.722;8.736;2023-05-27T06:27:13;15.50;99.90
10459;DHT22;5277;48.722;8.736;2023-05-27T06:29:38;15.70;99.70
10459;DHT22;5277;48.722;8.736;2023-05-27T06:32:04;15.80;99.60
10459;DHT22;5277;48.722;8.736;2023-05-27T06:34:30;16.00;99.10
10459;DHT22;5277;48.722;8.736;2023-05-27T06:36:55;16.20;98.50
10459;DHT22;5277;48.722;8.736;2023-05-27T06:39:21;16.30;98.20
10459;DHT22;5277;48.722;8.736;2023-05-27T06:41:47;16.30;97.90
10459;DHT22;5277;48.722;8.736;2023-05-27T06:44:13;16.50;97.70
10459;DHT22;5277;48.722;8.736;2023-05-27T06:46:39;16.70;97.30
10459;DHT22;5277;48.722;8.736;2023-05-27T06:49:04;16.90;96.80
10459;DHT22;5277;48.722;8.736;2023-05-27T06:51:30;17.10;96.70
10459;DHT22;5277;48.722;8.736;2023-05-27T06:53:57;17.20;96.50
10459;DHT22;5277;48.722;8.736;2023-05-27T06:56:23;17.40;96.20
10459;DHT22;5277;48.722;8.736;2023-05-27T06:58:48;17.60;96.00
10459;DHT22;5277;48.722;8.736;2023-05-27T07:01:14;17.80;95.80
10459;DHT22;5277;48.722;8.736;2023-05-27T07:03:41;18.00;95.40
10459;DHT22;5277;48.722;8.736;2023-05-27T07:06:06;18.20;94.90
10459;DHT22;5277;48.722;8.736;2023-05-27T07:08:32;18.30;94.70
10459;DHT22;5277;48.722;8.736;2023-05-27T07:10:57;18.50;94.20
10459;DHT22;5277;48.722;8.736;2023-05-27T07:13:23;18.60;93.70
10459;DHT22;5277;48.722;8.736;2023-05-27T07:15:49;18.80;93.90
10459;DHT22;5277;48.722;8.736;2023-05-27T07:18:16;18.90;93.40
10459;DHT22;5277;48.722;8.736;2023-05-27T07:20:42;19.10;92.80
10459;DHT22;5277;48.722;8.736;2023-05-27T07:23:08;19.30;92.40
10459;DHT22;5277;48.722;8.736;2023-05-27T07:25:34;19.40;92.30
10459;DHT22;5277;48.722;8.736;2023-05-27T07:28:00;19.50;90.80
10459;DHT22;5277;48.722;8.736;2023-05-27T07:30:25;19.50;90.60
10459;DHT22;5277;48.722;8.736;2023-05-27T07:32:52;19.70;91.30
10459;DHT22;5277;48.722;8.736;2023-05-27T07:35:17;19.90;90.00
10459;DHT22;5277;48.722;8.736;2023-05-27T07:37:43;20.00;88.50
10459;DHT22;5277;48.722;8.736;2023-05-27T07:40:09;19.90;87.10
10459;DHT22;5277;48.722;8.736;2023-05-27T07:42:35;19.90;89.30
10459;DHT22;5277;48.722;8.736;2023-05-27T07:45:02;20.10;90.20
10459;DHT22;5277;48.722;8.736;2023-05-27T07:47:28;19.90;85.80
10459;DHT22;5277;48.722;8.736;2023-05-27T07:49:53;19.90;86.90
10459;DHT22;5277;48.722;8.736;2023-05-27T07:52:19;20.10;86.60
10459;DHT22;5277;48.722;8.736;2023-05-27T07:54:45;20.10;85.60
10459;DHT22;5277;48.722;8.736;2023-05-27T07:57:10;20.30;84.00
10459;DHT22;5277;48.722;8.736;2023-05-27T07:59:36;20.50;84.50
10459;DHT22;5277;48.722;8.736;2023-05-27T08:02:01;20.70;83.50
10459;DHT22;5277;48.722;8.736;2023-05-27T08:04:27;20.70;83.90
10459;DHT22;5277;48.722;8.736;2023-05-27T08:06:53;20.80;84.60
10459;DHT22;5277;48.722;8.736;2023-05-27T08:09:18;20.90;83.40
10459;DHT22;5277;48.722;8.736;2023-05-27T08:11:44;20.60;79.60
10459;DHT22;5277;48.722;8.736;2023-05-27T08:14:09;20.70;81.80
10459;DHT22;5277;48.722;8.736;2023-05-27T08:16:35;20.70;83.50
10459;DHT22;5277;48.722;8.736;2023-05-27T08:19:00;20.70;82.20
10459;DHT22;5277;48.722;8.736;2023-05-27T08:21:26;20.60;81.90
10459;DHT22;5277;48.722;8.736;2023-05-27T08:23:52;21.00;83.20
10459;DHT22;5277;48.722;8.736;2023-05-27T08:26:17;21.20;82.50
10459;DHT22;5277;48.722;8.736;2023-05-27T08:28:43;21.30;83.60
10459;DHT22;5277;48.722;8.736;2023-05-27T08:31:09;21.40;81.00
10459;DHT22;5277;48.722;8.736;2023-05-27T08:33:35;21.40;80.40
10459;DHT22;5277;48.722;8.736;2023-05-27T08:36:01;21.60;80.30
10459;DHT22;5277;48.722;8.736;2023-05-27T08:38:27;21.50;80.40
10459;DHT22;5277;48.722;8.736;2023-05-27T08:40:53;21.40;80.50
10459;DHT22;5277;48.722;8.736;2023-05-27T08:43:19;21.40;79.30
10459;DHT22;5277;48.722;8.736;2023-05-27T08:45:47;21.50;79.60
10459;DHT22;5277;48.722;8.736;2023-05-27T08:48:15;21.50;78.70
10459;DHT22;5277;48.722;8.736;2023-05-27T08:50:41;21.40;78.60
10459;DHT22;5277;48.722;8.736;2023-05-27T08:53:07;21.60;80.20
10459;DHT22;5277;48.722;8.736;2023-05-27T08:55:34;21.50;78.50
10459;DHT22;5277;48.722;8.736;2023-05-27T08:58:01;21.70;78.90
10459;DHT22;5277;48.722;8.736;2023-05-27T09:00:28;21.80;78.60
10459;DHT22;5277;48.722;8.736;2023-05-27T09:02:54;22.00;79.50
10459;DHT22;5277;48.722;8.736;2023-05-27T09:05:25;22.20;78.40
10459;DHT22;5277;48.722;8.736;2023-05-27T09:07:51;22.20;77.90
10459;DHT22;5277;48.722;8.736;2023-05-27T09:10:16;22.40;77.50
10459;DHT22;5277;48.722;8.736;2023-05-27T09:12:43;22.70;77.00
10459;DHT22;5277;48.722;8.736;2023-05-27T09:15:11;22.70;75.40
10459;DHT22;5277;48.722;8.736;2023-05-27T09:17:43;22.50;74.70
10459;DHT22;5277;48.722;8.736;2023-05-27T09:20:10;22.60;76.10
10459;DHT22;5277;48.722;8.736;2023-05-27T09:22:40;22.70;75.40
10459;DHT22;5277;48.722;8.736;2023-05-27T09:25:06;23.00;75.10
10459;DHT22;5277;48.722;8.736;2023-05-27T09:27:32;23.30;73.80
10459;DHT22;5277;48.722;8.736;2023-05-27T09:30:06;23.40;73.90
10459;DHT22;5277;48.722;8.736;2023-05-27T09:32:32;23.20;72.30
10459;DHT22;5277;48.722;8.736;2023-05-27T09:34:59;23.40;73.00
10459;DHT22;5277;48.722;8.736;2023-05-27T09:37:31;23.80;74.60
10459;DHT22;5277;48.722;8.736;2023-05-27T09:40:00;24.20;72.40
10459;DHT22;5277;48.722;8.736;2023-05-27T09:42:48;24.30;70.60
10459;DHT22;5277;48.722;8.736;2023-05-27T09:45:19;24.30;69.70
10459;DHT22;5277;48.722;8.736;2023-05-27T09:47:50;24.60;70.60
10459;DHT22;5277;48.722;8.736;2023-05-27T09:50:17;24.90;69.80
10459;DHT22;5277;48.722;8.736;2023-05-27T09:52:44;25.20;67.80
10459;DHT22;5277;48.722;8.736;2023-05-27T09:55:11;24.90;67.00
10459;DHT22;5277;48.722;8.736;2023-05-27T09:57:38;24.90;68.80
10459;DHT22;5277;48.722;8.736;2023-05-27T10:00:06;24.80;70.00
10459;DHT22;5277;48.722;8.736;2023-05-27T10:02:43;25.40;68.40
10459;DHT22;5277;48.722;8.736;2023-05-27T10:05:13;25.60;66.30
10459;DHT22;5277;48.722;8.736;2023-05-27T10:07:41;25.80;66.50
10459;DHT22;5277;48.722;8.736;2023-05-27T10:10:12;25.90;64.60
10459;DHT22;5277;48.722;8.736;2023-05-27T10:12:39;26.00;64.10
10459;DHT22;5277;48.722;8.736;2023-05-27T10:15:06;26.40;64.20
10459;DHT22;5277;48.722;8.736;2023-05-27T10:17:42;27.00;62.10
10459;DHT22;5277;48.722;8.736;2023-05-27T10:20:08;27.10;60.70
10459;DHT22;5277;48.722;8.736;2023-05-27T10:22:42;27.00;60.20
10459;DHT22;5277;48.722;8.736;2023-05-27T10:25:14;27.60;60.40
10459;DHT22;5277;48.722;8.736;2023-05-27T10:27:47;27.70;58.70
10459;DHT22;5277;48.722;8.736;2023-05-27T10:30:14;27.40;57.20
10459;DHT22;5277;48.722;8.736;2023-05-27T10:32:58;26.90;57.30
10459;DHT22;5277;48.722;8.736;2023-05-27T10:35:27;26.90;58.60
10459;DHT22;5277;48.722;8.736;2023-05-27T10:37:53;26.70;59.20
10459;DHT22;5277;48.722;8.736;2023-05-27T10:40:26;26.40;59.90
10459;DHT22;5277;48.722;8.736;2023-05-27T10:43:00;26.50;58.80
10459;DHT22;5277;48.722;8.736;2023-05-27T10:45:33;27.40;57.90
10459;DHT22;5277;48.722;8.736;2023-05-27T10:47:59;27.70;56.40
10459;DHT22;5277;48.722;8.736;2023-05-27T10:50:31;28.20;56.60
10459;DHT22;5277;48.722;8.736;2023-05-27T10:52:59;28.70;56.10
10459;DHT22;5277;48.722;8.736;2023-05-27T10:55:25;28.90;55.70
10459;DHT22;5277;48.722;8.736;2023-05-27T10:57:51;29.20;54.30
10459;DHT22;5277;48.722;8.736;2023-05-27T11:00:18;29.20;53.30
10459;DHT22;5277;48.722;8.736;2023-05-27T11:02:46;28.20;52.90
10459;DHT22;5277;48.722;8.736;2023-05-27T11:05:15;28.10;55.10
10459;DHT22;5277;48.722;8.736;2023-05-27T11:07:42;28.60;53.90
10459;DHT22;5277;48.722;8.736;2023-05-27T11:10:09;28.60;53.60
10459;DHT22;5277;48.722;8.736;2023-05-27T11:12:35;28.80;54.30
10459;DHT22;5277;48.722;8.736;2023-05-27T11:15:01;29.00;53.30
10459;DHT22;5277;48.722;8.736;2023-05-27T11:17:27;29.20;54.10
10459;DHT22;5277;48.722;8.736;2023-05-27T11:19:54;29.30;51.90
10459;DHT22;5277;48.722;8.736;2023-05-27T11:22:20;29.40;53.60
10459;DHT22;5277;48.722;8.736;2023-05-27T11:24:59;29.10;52.10
10459;DHT22;5277;48.722;8.736;2023-05-27T11:27:32;29.00;51.40
10459;DHT22;5277;48.722;8.736;2023-05-27T11:29:58;28.70;51.40
10459;DHT22;5277;48.722;8.736;2023-05-27T11:32:24;28.20;52.50
10459;DHT22;5277;48.722;8.736;2023-05-27T11:34:50;29.00;55.80
10459;DHT22;5277;48.722;8.736;2023-05-27T11:37:16;29.60;54.20
10459;DHT22;5277;48.722;8.736;2023-05-27T11:39:52;29.20;51.10
10459;DHT22;5277;48.722;8.736;2023-05-27T11:42:25;28.90;56.10
10459;DHT22;5277;48.722;8.736;2023-05-27T11:44:52;29.50;52.10
10459;DHT22;5277;48.722;8.736;2023-05-27T11:47:18;29.90;50.00
10459;DHT22;5277;48.722;8.736;2023-05-27T11:49:45;30.20;50.90
10459;DHT22;5277;48.722;8.736;2023-05-27T11:52:11;30.40;51.20
10459;DHT22;5277;48.722;8.736;2023-05-27T11:54:39;30.30;50.20
10459;DHT22;5277;48.722;8.736;2023-05-27T11:57:05;30.80;53.10
10459;DHT22;5277;48.722;8.736;2023-05-27T11:59:36;31.10;50.10
10459;DHT22;5277;48.722;8.736;2023-05-27T12:02:02;31.10;51.30
10459;DHT22;5277;48.722;8.736;2023-05-27T12:04:29;31.10;49.40
10459;DHT22;5277;48.722;8.736;2023-05-27T12:06:55;31.30;48.10
10459;DHT22;5277;48.722;8.736;2023-05-27T12:09:22;31.50;47.80
10459;DHT22;5277;48.722;8.736;2023-05-27T12:11:48;30.80;46.60
10459;DHT22;5277;48.722;8.736;2023-05-27T12:14:14;30.80;46.80
10459;DHT22;5277;48.722;8.736;2023-05-27T12:16:40;31.10;46.90
10459;DHT22;5277;48.722;8.736;2023-05-27T12:19:05;31.60;47.20
10459;DHT22;5277;48.722;8.736;2023-05-27T12:21:31;31.40;48.30
10459;DHT22;5277;48.722;8.736;2023-05-27T12:23:57;31.10;49.00
10459;DHT22;5277;48.722;8.736;2023-05-27T12:26:23;31.50;49.00
10459;DHT22;5277;48.722;8.736;2023-05-27T12:28:50;31.30;46.60
10459;DHT22;5277;48.722;8.736;2023-05-27T12:31:16;31.20;48.00
10459;DHT22;5277;48.722;8.736;2023-05-27T12:33:42;31.80;45.90
10459;DHT22;5277;48.722;8.736;2023-05-27T12:36:07;31.80;47.00
10459;DHT22;5277;48.722;8.736;2023-05-27T12:38:33;31.60;44.90
10459;DHT22;5277;48.722;8.736;2023-05-27T12:40:59;31.70;47.10
10459;DHT22;5277;48.722;8.736;2023-05-27T12:43:25;32.00;44.00
10459;DHT22;5277;48.722;8.736;2023-05-27T12:45:51;32.10;46.30
10459;DHT22;5277;48.722;8.736;2023-05-27T12:48:17;31.90;44.80
10459;DHT22;5277;48.722;8.736;2023-05-27T12:50:43;31.60;44.90
10459;DHT22;5277;48.722;8.736;2023-05-27T12:53:09;30.60;46.70
10459;DHT22;5277;48.722;8.736;2023-05-27T12:55:35;29.60;44.80
10459;DHT22;5277;48.722;8.736;2023-05-27T12:58:01;28.80;48.10
10459;DHT22;5277;48.722;8.736;2023-05-27T13:00:27;28.40;52.70
10459;DHT22;5277;48.722;8.736;2023-05-27T13:02:53;27.80;50.90
10459;DHT22;5277;48.722;8.736;2023-05-27T13:05:19;27.30;53.00
10459;DHT22;5277;48.722;8.736;2023-05-27T13:07:57;26.70;49.90
10459;DHT22;5277;48.722;8.736;2023-05-27T13:10:23;26.20;54.30
10459;DHT22;5277;48.722;8.736;2023-05-27T13:12:49;25.80;52.50
10459;DHT22;5277;48.722;8.736;2023-05-27T13:15:15;25.60;58.50
10459;DHT22;5277;48.722;8.736;2023-05-27T13:17:44;25.30;58.00
10459;DHT22;5277;48.722;8.736;2023-05-27T13:20:11;25.00;58.70
10459;DHT22;5277;48.722;8.736;2023-05-27T13:22:37;24.80;53.90
10459;DHT22;5277;48.722;8.736;2023-05-27T13:25:04;24.60;56.10
10459;DHT22;5277;48.722;8.736;2023-05-27T13:27:30;24.50;57.80
10459;DHT22;5277;48.722;8.736;2023-05-27T13:29:55;24.50;57.40
10459;DHT22;5277;48.722;8.736;2023-05-27T13:32:21;24.40;56.60
10459;DHT22;5277;48.722;8.736;2023-05-27T13:34:47;24.30;58.60
10459;DHT22;5277;48.722;8.736;2023-05-27T13:37:13;24.20;59.50
10459;DHT22;5277;48.722;8.736;2023-05-27T13:39:38;24.00;60.30
10459;DHT22;5277;48.722;8.736;2023-05-27T13:42:08;24.10;62.60
10459;DHT22;5277;48.722;8.736;2023-05-27T13:44:34;23.80;66.80
10459;DHT22;5277;48.722;8.736;2023-05-27T13:47:00;23.70;56.90
10459;DHT22;5277;48.722;8.736;2023-05-27T13:49:25;23.60;61.30
10459;DHT22;5277;48.722;8.736;2023-05-27T13:51:51;23.70;58.20
10459;DHT22;5277;48.722;8.736;2023-05-27T13:54:17;23.70;61.10
10459;DHT22;5277;48.722;8.736;2023-05-27T13:56:43;23.40;65.40
10459;DHT22;5277;48.722;8.736;2023-05-27T13:59:09;23.40;62.10
10459;DHT22;5277;48.722;8.736;2023-05-27T14:01:35;23.40;59.50
10459;DHT22;5277;48.722;8.736;2023-05-27T14:04:01;23.40;59.50
10459;DHT22;5277;48.722;8.736;2023-05-27T14:06:27;23.40;63.30
10459;DHT22;5277;48.722;8.736;2023-05-27T14:08:54;23.20;64.30
10459;DHT22;5277;48.722;8.736;2023-05-27T14:11:19;23.20;61.00
10459;DHT22;5277;48.722;8.736;2023-05-27T14:13:46;23.20;60.30
10459;DHT22;5277;48.722;8.736;2023-05-27T14:16:14;23.10;60.70
10459;DHT22;5277;48.722;8.736;2023-05-27T14:18:40;23.00;62.10
10459;DHT22;5277;48.722;8.736;2023-05-27T14:21:05;23.00;62.30
10459;DHT22;5277;48.722;8.736;2023-05-27T14:23:31;22.80;59.60
10459;DHT22;5277;48.722;8.736;2023-05-27T14:25:57;22.70;61.80
10459;DHT22;5277;48.722;8.736;2023-05-27T14:28:22;22.70;64.30
10459;DHT22;5277;48.722;8.736;2023-05-27T14:30:48;22.60;59.30
10459;DHT22;5277;48.722;8.736;2023-05-27T14:33:14;22.60;64.10
10459;DHT22;5277;48.722;8.736;2023-05-27T14:35:40;22.70;60.60
10459;DHT22;5277;48.722;8.736;2023-05-27T14:38:06;22.60;66.20
10459;DHT22;5277;48.722;8.736;2023-05-27T14:40:33;22.70;63.50
10459;DHT22;5277;48.722;8.736;2023-05-27T14:42:59;22.50;62.20
10459;DHT22;5277;48.722;8.736;2023-05-27T14:45:25;22.50;64.50
10459;DHT22;5277;48.722;8.736;2023-05-27T14:47:51;22.50;60.20
10459;DHT22;5277;48.722;8.736;2023-05-27T14:50:21;22.40;62.70
10459;DHT22;5277;48.722;8.736;2023-05-27T14:52:49;22.40;67.50
10459;DHT22;5277;48.722;8.736;2023-05-27T14:55:15;22.30;66.70
10459;DHT22;5277;48.722;8.736;2023-05-27T14:57:40;22.20;67.20
10459;DHT22;5277;48.722;8.736;2023-05-27T15:00:06;22.20;64.40
10459;DHT22;5277;48.722;8.736;2023-05-27T15:02:35;22.10;66.50
10459;DHT22;5277;48.722;8.736;2023-05-27T15:05:05;22.10;62.40
10459;DHT22;5277;48.722;8.736;2023-05-27T15:07:32;22.10;68.80
10459;DHT22;5277;48.722;8.736;2023-05-27T15:09:58;22.00;71.20
10459;DHT22;5277;48.722;8.736;2023-05-27T15:12:24;21.90;71.40
10459;DHT22;5277;48.722;8.736;2023-05-27T15:14:50;21.90;70.20
10459;DHT22;5277;48.722;8.736;2023-05-27T15:17:16;21.80;70.80
10459;DHT22;5277;48.722;8.736;2023-05-27T15:19:41;21.90;64.60
10459;DHT22;5277;48.722;8.736;2023-05-27T15:22:07;21.80;62.20
10459;DHT22;5277;48.722;8.736;2023-05-27T15:24:33;21.80;62.00
10459;DHT22;5277;48.722;8.736;2023-05-27T15:26:59;21.90;65.70
10459;DHT22;5277;48.722;8.736;2023-05-27T15:29:26;21.90;65.00
10459;DHT22;5277;48.722;8.736;2023-05-27T15:31:52;22.00;60.90
10459;DHT22;5277;48.722;8.736;2023-05-27T15:34:18;21.90;67.10
10459;DHT22;5277;48.722;8.736;2023-05-27T15:36:43;21.90;65.10
10459;DHT22;5277;48.722;8.736;2023-05-27T15:39:09;21.80;66.50
10459;DHT22;5277;48.722;8.736;2023-05-27T15:41:35;21.90;64.90
10459;DHT22;5277;48.722;8.736;2023-05-27T15:44:00;21.90;65.30
10459;DHT22;5277;48.722;8.736;2023-05-27T15:46:26;21.90;65.60